Time,TemperatureF,DewpointF,PressureIn,WindDirection,WindDirectionDegrees,WindSpeedMPH,WindSpeedGustMPH,Humidity,HourlyPrecipIn,Conditions,Clouds,dailyrainin,SoftwareType,DateUTC
2013-03-06 00:11:00,19.4,14.3,30.20,WNW,292,0.0,-999.0,80,-99.99,,,0.00,Acu-Link.com,2013-03-06 06:11:00,
2013-03-06 00:27:00,19.2,14.3,30.21,ENE,67,1.7,-999.0,81,-99.99,,,0.00,Acu-Link.com,2013-03-06 06:27:00,
2013-03-06 00:42:00,18.9,14.1,30.21,WNW,292,1.7,-999.0,81,-99.99,,,0.00,Acu-Link.com,2013-03-06 06:42:00,
2013-03-06 00:57:00,18.7,13.9,30.22,South,180,1.1,-999.0,81,-99.99,,,0.00,Acu-Link.com,2013-03-06 06:57:00,
2013-03-06 01:12:00,18.5,13.7,30.22,WNW,292,2.2,-999.0,81,-99.99,,,0.00,Acu-Link.com,2013-03-06 07:12:00,
2013-03-06 01:28:00,18.3,13.5,30.22,East,90,1.1,-999.0,81,-99.99,,,0.00,Acu-Link.com,2013-03-06 07:28:00,
2013-03-06 01:43:00,18.1,13.3,30.23,WNW,292,1.1,-999.0,81,-99.99,,,0.00,Acu-Link.com,2013-03-06 07:43:00,
2013-03-06 01:58:00,17.8,13.0,30.23,ENE,67,1.1,-999.0,81,-99.99,,,0.00,Acu-Link.com,2013-03-06 07:58:00,
2013-03-06 02:13:00,16.9,11.8,30.23,ESE,112,1.7,-999.0,80,-99.99,,,0.00,Acu-Link.com,2013-03-06 08:13:00,
2013-03-06 02:28:00,15.8,10.7,30.23,NNW,337,0.0,-999.0,80,-99.99,,,0.00,Acu-Link.com,2013-03-06 08:28:00,
2013-03-06 02:44:00,14.7,9.9,30.24,North,0,2.2,-999.0,81,-99.99,,,0.00,Acu-Link.com,2013-03-06 08:44:00,
2013-03-06 02:59:00,13.6,8.9,30.23,North,0,2.2,-999.0,81,-99.99,,,0.00,Acu-Link.com,2013-03-06 08:59:00,
2013-03-06 03:23:00,13.1,8.4,30.23,ENE,67,0.0,-999.0,81,-99.99,,,0.00,Acu-Link.com,2013-03-06 09:23:00,
2013-03-06 03:38:00,12.0,7.8,30.23,ENE,67,0.0,-999.0,83,-99.99,,,0.00,Acu-Link.com,2013-03-06 09:38:00,
2013-03-06 03:53:00,12.0,8.1,30.23,ENE,67,1.7,-999.0,84,-99.99,,,0.00,Acu-Link.com,2013-03-06 09:53:00,
2013-03-06 04:08:00,12.0,8.1,30.23,WNW,292,1.1,-999.0,84,-99.99,,,0.00,Acu-Link.com,2013-03-06 10:08:00,
2013-03-06 04:24:00,12.2,8.3,30.23,NNW,337,1.1,-999.0,84,-99.99,,,0.00,Acu-Link.com,2013-03-06 10:24:00,
2013-03-06 04:39:00,12.9,9.3,30.24,NNW,337,0.0,-999.0,85,-99.99,,,0.00,Acu-Link.com,2013-03-06 10:39:00,
2013-03-06 04:54:00,13.5,9.8,30.25,NNW,337,0.0,-999.0,85,-99.99,,,0.00,Acu-Link.com,2013-03-06 10:54:00,
2013-03-06 05:09:00,14.0,10.3,30.25,ESE,112,0.0,-999.0,85,-99.99,,,0.00,Acu-Link.com,2013-03-06 11:09:00,
2013-03-06 05:24:00,14.4,10.7,30.26,NE,45,0.0,-999.0,85,-99.99,,,0.00,Acu-Link.com,2013-03-06 11:24:00,
2013-03-06 05:40:00,14.7,10.8,30.26,NW,315,0.0,-999.0,84,-99.99,,,0.00,Acu-Link.com,2013-03-06 11:40:00,
2013-03-06 05:55:00,15.1,11.2,30.26,NNE,22,1.1,-999.0,84,-99.99,,,0.00,Acu-Link.com,2013-03-06 11:55:00,
2013-03-06 06:10:00,15.3,11.3,30.27,WNW,292,1.1,-999.0,84,-99.99,,,0.00,Acu-Link.com,2013-03-06 12:10:00,
2013-03-06 06:25:00,15.6,11.6,30.27,NE,45,1.7,-999.0,84,-99.99,,,0.00,Acu-Link.com,2013-03-06 12:25:00,
2013-03-06 06:41:00,15.8,11.6,30.27,NE,45,0.0,-999.0,83,-99.99,,,0.00,Acu-Link.com,2013-03-06 12:41:00,
2013-03-06 06:56:00,16.0,11.8,30.27,North,0,0.0,-999.0,83,-99.99,,,0.00,Acu-Link.com,2013-03-06 12:56:00,
2013-03-06 07:11:00,16.5,12.0,30.28,NE,45,0.0,-999.0,82,-99.99,,,0.00,Acu-Link.com,2013-03-06 13:11:00,
2013-03-06 07:26:00,17.1,12.6,30.28,ESE,112,0.0,-999.0,82,-99.99,,,0.00,Acu-Link.com,2013-03-06 13:26:00,
2013-03-06 07:41:00,17.8,13.0,30.28,SW,225,1.1,-999.0,81,-99.99,,,0.00,Acu-Link.com,2013-03-06 13:41:00,
2013-03-06 07:57:00,18.7,13.6,30.28,ENE,67,1.1,-999.0,80,-99.99,,,0.00,Acu-Link.com,2013-03-06 13:57:00,
2013-03-06 08:12:00,19.0,13.9,30.28,North,0,1.7,-999.0,80,-99.99,,,0.00,Acu-Link.com,2013-03-06 14:12:00,
2013-03-06 08:27:00,19.4,13.7,30.28,NE,45,1.1,-999.0,78,-99.99,,,0.00,Acu-Link.com,2013-03-06 14:27:00,
2013-03-06 08:42:00,19.8,13.8,30.28,NNW,337,1.7,-999.0,77,-99.99,,,0.00,Acu-Link.com,2013-03-06 14:42:00,
2013-03-06 08:57:00,20.5,14.2,30.28,West,270,1.7,-999.0,76,-99.99,,,0.00,Acu-Link.com,2013-03-06 14:57:00,
2013-03-06 09:13:00,21.2,14.2,30.28,West,270,2.2,-999.0,74,-99.99,,,0.00,Acu-Link.com,2013-03-06 15:13:00,
2013-03-06 09:28:00,21.7,14.4,30.29,East,90,0.0,-999.0,73,-99.99,,,0.00,Acu-Link.com,2013-03-06 15:28:00,
2013-03-06 09:43:00,22.5,14.9,30.28,NW,315,1.7,-999.0,72,-99.99,,,0.00,Acu-Link.com,2013-03-06 15:43:00,
2013-03-06 09:58:00,23.0,15.0,30.28,NNE,22,0.0,-999.0,71,-99.99,,,0.00,Acu-Link.com,2013-03-06 15:58:00,
2013-03-06 10:13:00,23.2,14.6,30.28,WSW,247,2.7,-999.0,69,-99.99,,,0.00,Acu-Link.com,2013-03-06 16:13:00,
2013-03-06 10:29:00,24.6,15.2,30.28,NNW,337,2.2,-999.0,67,-99.99,,,0.00,Acu-Link.com,2013-03-06 16:29:00,
2013-03-06 10:44:00,25.5,15.7,30.27,NW,315,2.2,-999.0,66,-99.99,,,0.00,Acu-Link.com,2013-03-06 16:44:00,
2013-03-06 10:59:00,26.8,17.0,30.27,West,270,0.0,-999.0,66,-99.99,,,0.00,Acu-Link.com,2013-03-06 16:59:00,
2013-03-06 11:14:00,27.1,17.3,30.26,WSW,247,1.7,-999.0,66,-99.99,,,0.00,Acu-Link.com,2013-03-06 17:14:00,
2013-03-06 11:30:00,27.9,17.7,30.26,SW,225,2.7,-999.0,65,-99.99,,,0.00,Acu-Link.com,2013-03-06 17:30:00,
2013-03-06 11:45:00,28.8,18.2,30.26,NE,45,1.7,-999.0,64,-99.99,,,0.00,Acu-Link.com,2013-03-06 17:45:00,
2013-03-06 12:00:00,29.5,18.5,30.26,ESE,112,0.0,-999.0,63,-99.99,,,0.00,Acu-Link.com,2013-03-06 18:00:00,
2013-03-06 12:15:00,30.2,18.4,30.25,WNW,292,0.0,-999.0,61,-99.99,,,0.00,Acu-Link.com,2013-03-06 18:15:00,
2013-03-06 12:30:00,28.8,17.4,30.25,ENE,67,1.1,-999.0,62,-99.99,,,0.00,Acu-Link.com,2013-03-06 18:30:00,
2013-03-06 12:46:00,30.7,18.9,30.25,SE,135,0.0,-999.0,61,-99.99,,,0.00,Acu-Link.com,2013-03-06 18:46:00,
2013-03-06 13:01:00,30.9,18.7,30.24,South,180,1.1,-999.0,60,-99.99,,,0.00,Acu-Link.com,2013-03-06 19:01:00,
2013-03-06 13:16:00,31.5,19.6,30.23,West,270,1.7,-999.0,61,-99.99,,,0.00,Acu-Link.com,2013-03-06 19:16:00,
2013-03-06 13:31:00,30.2,18.8,30.23,NNE,22,1.1,-999.0,62,-99.99,,,0.00,Acu-Link.com,2013-03-06 19:31:00,
2013-03-06 13:46:00,30.9,18.7,30.22,East,90,1.1,-999.0,60,-99.99,,,0.00,Acu-Link.com,2013-03-06 19:46:00,
2013-03-06 14:02:00,31.6,18.9,30.22,West,270,0.0,-999.0,59,-99.99,,,0.00,Acu-Link.com,2013-03-06 20:02:00,
2013-03-06 14:17:00,31.1,18.9,30.21,NNW,337,0.0,-999.0,60,-99.99,,,0.00,Acu-Link.com,2013-03-06 20:17:00,
2013-03-06 14:32:00,30.7,18.9,30.21,NE,45,1.7,-999.0,61,-99.99,,,0.00,Acu-Link.com,2013-03-06 20:32:00,
2013-03-06 14:47:00,30.9,18.7,30.21,East,90,1.7,-999.0,60,-99.99,,,0.00,Acu-Link.com,2013-03-06 20:47:00,
2013-03-06 15:02:00,28.9,17.9,30.21,North,0,2.2,-999.0,63,-99.99,,,0.00,Acu-Link.com,2013-03-06 21:02:00,
2013-03-06 15:18:00,29.3,18.3,30.21,SW,225,0.0,-999.0,63,-99.99,,,0.00,Acu-Link.com,2013-03-06 21:18:00,
2013-03-06 15:33:00,28.9,17.9,30.21,West,270,1.1,-999.0,63,-99.99,,,0.00,Acu-Link.com,2013-03-06 21:33:00,
2013-03-06 15:48:00,28.6,18.0,30.21,NE,45,2.7,-999.0,64,-99.99,,,0.00,Acu-Link.com,2013-03-06 21:48:00,
2013-03-06 16:03:00,28.6,18.0,30.21,NNW,337,2.2,-999.0,64,-99.99,,,0.00,Acu-Link.com,2013-03-06 22:03:00,
2013-03-06 16:18:00,26.8,17.0,30.21,WNW,292,1.7,-999.0,66,-99.99,,,0.00,Acu-Link.com,2013-03-06 22:18:00,
2013-03-06 16:34:00,26.8,17.3,30.21,SW,225,1.7,-999.0,67,-99.99,,,0.00,Acu-Link.com,2013-03-06 22:34:00,
2013-03-06 16:49:00,26.2,17.1,30.20,WNW,292,1.1,-999.0,68,-99.99,,,0.00,Acu-Link.com,2013-03-06 22:49:00,
2013-03-06 17:04:00,25.5,16.1,30.21,ESE,112,1.1,-999.0,67,-99.99,,,0.00,Acu-Link.com,2013-03-06 23:04:00,
2013-03-06 17:19:00,24.4,16.0,30.20,NE,45,1.7,-999.0,70,-99.99,,,0.00,Acu-Link.com,2013-03-06 23:19:00,
2013-03-06 17:35:00,24.3,15.9,30.20,West,270,0.0,-999.0,70,-99.99,,,0.00,Acu-Link.com,2013-03-06 23:35:00,
2013-03-06 17:50:00,22.6,15.0,30.20,ESE,112,2.7,-999.0,72,-99.99,,,0.00,Acu-Link.com,2013-03-06 23:50:00,
2013-03-06 18:05:00,22.3,14.7,30.20,SSW,202,0.0,-999.0,72,-99.99,,,0.00,Acu-Link.com,2013-03-07 00:05:00,
2013-03-06 18:20:00,20.8,13.5,30.20,SSE,157,1.7,-999.0,73,-99.99,,,0.00,Acu-Link.com,2013-03-07 00:20:00,
2013-03-06 18:35:00,20.3,13.4,30.20,ENE,67,2.2,-999.0,74,-99.99,,,0.00,Acu-Link.com,2013-03-07 00:35:00,
2013-03-06 18:51:00,20.1,13.2,30.19,NNW,337,0.0,-999.0,74,-99.99,,,0.00,Acu-Link.com,2013-03-07 00:51:00,
2013-03-06 19:06:00,19.6,12.7,30.20,SW,225,0.0,-999.0,74,-99.99,,,0.00,Acu-Link.com,2013-03-07 01:06:00,
2013-03-06 19:21:00,19.2,12.6,30.20,West,270,0.0,-999.0,75,-99.99,,,0.00,Acu-Link.com,2013-03-07 01:21:00,
2013-03-06 19:36:00,18.9,12.3,30.20,SW,225,1.7,-999.0,75,-99.99,,,0.00,Acu-Link.com,2013-03-07 01:36:00,
2013-03-06 19:51:00,18.3,12.0,30.19,East,90,0.0,-999.0,76,-99.99,,,0.00,Acu-Link.com,2013-03-07 01:51:00,
2013-03-06 20:07:00,17.8,11.5,30.18,SSE,157,0.0,-999.0,76,-99.99,,,0.00,Acu-Link.com,2013-03-07 02:07:00,
2013-03-06 20:22:00,16.7,10.8,30.18,ENE,67,0.0,-999.0,77,-99.99,,,0.00,Acu-Link.com,2013-03-07 02:22:00,
2013-03-06 20:37:00,15.4,9.5,30.18,West,270,0.0,-999.0,77,-99.99,,,0.00,Acu-Link.com,2013-03-07 02:37:00,
2013-03-06 20:52:00,14.2,8.6,30.19,NE,45,0.0,-999.0,78,-99.99,,,0.00,Acu-Link.com,2013-03-07 02:52:00,
2013-03-06 21:07:00,13.3,8.0,30.19,NNE,22,0.0,-999.0,79,-99.99,,,0.00,Acu-Link.com,2013-03-07 03:07:00,
2013-03-06 21:23:00,12.2,6.7,30.19,East,90,0.0,-999.0,78,-99.99,,,0.00,Acu-Link.com,2013-03-07 03:23:00,
2013-03-06 21:38:00,10.9,5.7,30.19,NNE,22,0.0,-999.0,79,-99.99,,,0.00,Acu-Link.com,2013-03-07 03:38:00,
2013-03-06 21:53:00,10.2,5.6,30.20,ENE,67,0.0,-999.0,81,-99.99,,,0.00,Acu-Link.com,2013-03-07 03:53:00,
2013-03-06 22:08:00,9.9,6.3,30.21,WSW,247,0.0,-999.0,85,-99.99,,,0.00,Acu-Link.com,2013-03-07 04:08:00,
2013-03-06 22:23:00,9.1,4.5,30.21,ENE,67,0.0,-999.0,81,-99.99,,,0.00,Acu-Link.com,2013-03-07 04:23:00,
2013-03-06 22:39:00,8.6,4.5,30.21,NNW,337,0.0,-999.0,83,-99.99,,,0.00,Acu-Link.com,2013-03-07 04:39:00,
2013-03-06 22:54:00,7.9,3.8,30.21,WSW,247,0.0,-999.0,83,-99.99,,,0.00,Acu-Link.com,2013-03-07 04:54:00,
2013-03-06 23:09:00,8.1,4.5,30.20,East,90,0.0,-999.0,85,-99.99,,,0.00,Acu-Link.com,2013-03-07 05:09:00,
2013-03-06 23:24:00,7.7,4.1,30.21,ENE,67,0.0,-999.0,85,-99.99,,,0.00,Acu-Link.com,2013-03-07 05:24:00,
2013-03-06 23:40:00,6.8,2.2,30.20,WNW,292,0.0,-999.0,81,-99.99,,,0.00,Acu-Link.com,2013-03-07 05:40:00,
2013-03-06 23:55:00,5.9,1.3,30.20,SSE,157,0.0,-999.0,81,-99.99,,,0.00,Acu-Link.com,2013-03-07 05:55:00,